Time;durP1;ratioP1;P1;durP2;ratioP2;P2;SDS_P1;SDS_P2;PMS_P1;PMS_P2;Temp;Humidity;BMP_temperature;BMP_pressure;BME280_temperature;BME280_humidity;BME280_pressure;Samples;Min_cycle;Max_cycle;Signal;HPM_P1;HPM_P2
2022/05/14 00:00:43;;;;;;;30.02;15.60;;;;;;;;;;5027559;28;20029;-75
2022/05/14 00:03:10;;;;;;;27.25;15.27;;;;;;;;;;5027852;28;20594;-76
2022/05/14 00:05:36;;;;;;;27.92;15.88;;;;;;;;;;5027411;28;20026;-75
2022/05/14 00:08:02;;;;;;;29.15;15.13;;;;;;;;;;5027157;28;20549;-76
2022/05/14 00:10:30;;;;;;;30.75;16.35;;;;;;;;;;5028014;28;20032;-75
2022/05/14 00:13:06;;;;;;;29.80;16.50;;;;;;;;;;5027612;28;20041;-76
2022/05/14 00:15:37;;;;;;;31.30;17.10;;;;;;;;;;5028152;28;20025;-75
2022/05/14 00:18:04;;;;;;;31.42;16.55;;;;;;;;;;5027626;28;20029;-75
2022/05/14 00:20:31;;;;;;;26.20;16.10;;;;;;;;;;5027869;28;20033;-75
2022/05/14 00:22:58;;;;;;;28.27;15.82;;;;;;;;;;5031158;28;20033;-76
2022/05/14 00:25:24;;;;;;;28.05;16.10;;;;;;;;;;5028044;28;20029;-76
2022/05/14 00:27:50;;;;;;;30.25;15.13;;;;;;;;;;5027881;28;20392;-75
2022/05/14 00:30:18;;;;;;;38.83;16.42;;;;;;;;;;5027204;28;20025;-75
2022/05/14 00:32:44;;;;;;;27.92;16.20;;;;;;;;;;5027473;28;20045;-76
2022/05/14 00:35:11;;;;;;;30.00;15.60;;;;;;;;;;5030104;28;20033;-75
2022/05/14 00:37:37;;;;;;;26.33;16.77;;;;;;;;;;5029067;28;20030;-76
2022/05/14 00:40:05;;;;;;;30.92;17.58;;;;;;;;;;5027444;28;20112;-76
2022/05/14 00:42:31;;;;;;;31.98;16.75;;;;;;;;;;5027513;28;20025;-75
2022/05/14 00:44:58;;;;;;;28.17;16.90;;;;;;;;;;5027512;28;20091;-75
2022/05/14 00:47:25;;;;;;;29.92;17.20;;;;;;;;;;5028422;28;20032;-76
2022/05/14 00:49:51;;;;;;;32.03;17.75;;;;;;;;;;5029432;28;20079;-76
2022/05/14 00:52:19;;;;;;;30.02;18.63;;;;;;;;;;5027328;28;20092;-76
2022/05/14 00:54:49;;;;;;;29.48;16.73;;;;;;;;;;5027456;28;20061;-76
2022/05/14 00:57:17;;;;;;;30.60;17.10;;;;;;;;;;5027796;28;20029;-76
2022/05/14 00:59:44;;;;;;;31.00;17.48;;;;;;;;;;5026649;28;20559;-75
2022/05/14 01:02:10;;;;;;;31.02;18.17;;;;;;;;;;5030629;28;20033;-76
2022/05/14 01:04:39;;;;;;;32.67;17.33;;;;;;;;;;5027930;28;20022;-76
2022/05/14 01:07:09;;;;;;;31.02;17.70;;;;;;;;;;5027272;28;20029;-75
2022/05/14 01:09:36;;;;;;;32.63;17.38;;;;;;;;;;5027653;28;20029;-76
2022/05/14 01:12:03;;;;;;;29.27;16.92;;;;;;;;;;5027726;28;20500;-75
2022/05/14 01:14:29;;;;;;;30.27;17.13;;;;;;;;;;5027024;28;20041;-75
2022/05/14 01:16:55;;;;;;;27.23;17.25;;;;;;;;;;5029807;28;20049;-75
2022/05/14 01:19:21;;;;;;;32.10;16.95;;;;;;;;;;5029083;28;20362;-75
2022/05/14 01:21:59;;;;;;;37.67;18.63;;;;;;;;;;5030398;28;20028;-75
2022/05/14 01:27:15;;;;;;;29.95;18.70;;;;;;;;;;5027110;28;20031;-75
2022/05/14 01:29:42;;;;;;;25.83;18.17;;;;;;;;;;5027336;28;20435;-75
2022/05/14 01:32:09;;;;;;;32.92;17.63;;;;;;;;;;5034033;28;20052;-75
2022/05/14 01:34:35;;;;;;;31.67;17.13;;;;;;;;;;5030947;28;20106;-75
2022/05/14 01:37:03;;;;;;;27.45;17.80;;;;;;;;;;5031115;28;20026;-75
2022/05/14 01:39:29;;;;;;;29.05;17.83;;;;;;;;;;5030709;28;20496;-75
2022/05/14 01:41:56;;;;;;;30.83;18.60;;;;;;;;;;5030507;28;20423;-75
2022/05/14 01:44:22;;;;;;;35.25;19.35;;;;;;;;;;5033309;28;20017;-75
2022/05/14 01:46:48;;;;;;;32.92;18.50;;;;;;;;;;5032015;28;20121;-75
2022/05/14 01:49:15;;;;;;;28.95;17.92;;;;;;;;;;5030726;28;20025;-75
2022/05/14 01:51:41;;;;;;;36.63;17.73;;;;;;;;;;5029728;28;20542;-75
2022/05/14 01:54:07;;;;;;;28.65;18.80;;;;;;;;;;5030882;28;20038;-75
2022/05/14 01:56:33;;;;;;;31.80;17.33;;;;;;;;;;5031033;28;20024;-75
2022/05/14 01:58:59;;;;;;;30.92;17.35;;;;;;;;;;5033523;28;20025;-75
2022/05/14 02:01:27;;;;;;;28.70;16.45;;;;;;;;;;5030030;28;20032;-76
2022/05/14 02:03:58;;;;;;;31.30;16.98;;;;;;;;;;5030637;28;20099;-76
2022/05/14 02:06:26;;;;;;;32.55;17.38;;;;;;;;;;5030848;28;20031;-75
2022/05/14 02:08:52;;;;;;;25.70;16.63;;;;;;;;;;5030591;28;20025;-75
2022/05/14 02:11:18;;;;;;;31.45;16.35;;;;;;;;;;5032093;28;20495;-76
2022/05/14 02:13:45;;;;;;;37.88;18.55;;;;;;;;;;5030045;28;20037;-76
2022/05/14 02:16:11;;;;;;;32.03;16.17;;;;;;;;;;5029738;28;20068;-75
2022/05/14 02:18:38;;;;;;;25.30;16.23;;;;;;;;;;5030442;28;20048;-76
2022/05/14 02:21:05;;;;;;;30.30;16.88;;;;;;;;;;5030201;28;20017;-75
2022/05/14 02:23:32;;;;;;;33.40;16.85;;;;;;;;;;5030747;28;20037;-75
2022/05/14 02:25:59;;;;;;;31.02;17.55;;;;;;;;;;5032816;28;20020;-75
2022/05/14 02:28:25;;;;;;;32.08;18.23;;;17.50;99.90;;;;;;5030641;28;20030;-75
2022/05/14 02:30:51;;;;;;;36.78;17.92;;;;;;;;;;5029274;28;20099;-75
2022/05/14 02:33:17;;;;;;;29.65;18.05;;;17.50;99.90;;;;;;5028655;28;20462;-75
2022/05/14 02:35:43;;;;;;;31.33;17.92;;;17.50;99.90;;;;;;5030160;28;20389;-75
2022/05/14 02:38:10;;;;;;;29.98;17.75;;;17.50;99.90;;;;;;5033301;28;20060;-76
2022/05/14 02:40:36;;;;;;;31.25;17.98;;;17.20;99.90;;;;;;5030730;28;20022;-75
2022/05/14 02:43:02;;;;;;;31.73;18.60;;;17.30;99.90;;;;;;5029333;28;20077;-75
2022/05/14 02:45:28;;;;;;;32.38;18.13;;;17.30;99.90;;;;;;5029558;28;20526;-75
2022/05/14 02:47:53;;;;;;;31.27;17.52;;;17.40;99.90;;;;;;5030027;28;20022;-75
2022/05/14 02:50:20;;;;;;;33.17;18.13;;;17.30;99.90;;;;;;5032438;28;20443;-75
2022/05/14 02:52:46;;;;;;;30.27;18.15;;;17.40;99.90;;;;;;5031100;28;20067;-76
2022/05/14 02:55:12;;;;;;;35.00;19.20;;;17.20;99.90;;;;;;5029896;28;20037;-75
2022/05/14 02:57:38;;;;;;;30.67;17.73;;;17.20;99.90;;;;;;5029719;28;20535;-75
2022/05/14 03:00:07;;;;;;;31.08;18.58;;;17.20;99.90;;;;;;5029347;28;20030;-75
2022/05/14 03:02:33;;;;;;;33.30;18.30;;;17.30;99.90;;;;;;5030248;28;20037;-76
2022/05/14 03:05:00;;;;;;;28.73;18.55;;;17.30;99.90;;;;;;5032997;28;20025;-76
2022/05/14 03:07:26;;;;;;;28.75;18.55;;;17.30;99.90;;;;;;5029686;28;20073;-76
2022/05/14 03:09:52;;;;;;;30.80;18.45;;;17.30;99.90;;;;;;5029350;28;20056;-75
2022/05/14 03:12:21;;;;;;;32.45;19.60;;;17.30;99.90;;;;;;5029593;28;20104;-76
2022/05/14 03:14:48;;;;;;;33.53;19.02;;;17.30;99.90;;;;;;5028809;28;20454;-76
2022/05/14 03:17:15;;;;;;;32.10;19.15;;;17.30;99.90;;;;;;5031567;28;20049;-76
2022/05/14 03:19:41;;;;;;;32.25;20.10;;;17.30;99.90;;;;;;5030656;28;20489;-76
2022/05/14 03:22:07;;;;;;;34.75;18.55;;;17.30;99.90;;;;;;5029326;28;20035;-76
2022/05/14 03:24:34;;;;;;;30.33;18.63;;;;;;;;;;5029068;28;20025;-75
2022/05/14 03:27:01;;;;;;;32.22;18.67;;;;;;;;;;5031069;28;20018;-76
2022/05/14 03:29:27;;;;;;;41.22;19.10;;;;;;;;;;5030321;28;20068;-76
2022/05/14 03:31:55;;;;;;;33.88;19.23;;;;;;;;;;5031040;28;20079;-76
2022/05/14 03:34:21;;;;;;;34.55;19.98;;;;;;;;;;5028679;28;20106;-76
2022/05/14 03:36:47;;;;;;;39.80;20.83;;;;;;;;;;5029081;28;20061;-76
2022/05/14 03:39:13;;;;;;;34.45;20.70;;;;;;;;;;5029241;28;20068;-77
2022/05/14 03:41:39;;;;;;;39.38;22.45;;;;;;;;;;5028290;28;20432;-76
2022/05/14 03:44:05;;;;;;;41.38;23.58;;;;;;;;;;5032137;28;20085;-76
2022/05/14 03:46:31;;;;;;;39.45;22.77;;;;;;;;;;5028944;28;20036;-76
2022/05/14 03:48:58;;;;;;;39.45;22.60;;;;;;;;;;5028814;28;20029;-76
2022/05/14 03:51:24;;;;;;;37.38;23.00;;;;;;;;;;5028251;28;20046;-76
2022/05/14 03:53:50;;;;;;;35.05;20.85;;;;;;;;;;5027559;28;20052;-75
2022/05/14 03:56:16;;;;;;;37.10;21.42;;;;;;;;;;5030958;28;20018;-75
2022/05/14 03:58:42;;;;;;;37.40;21.88;;;;;;;;;;5029719;28;20488;-76
2022/05/14 04:01:08;;;;;;;34.20;20.63;;;;;;;;;;5028506;28;20033;-76
2022/05/14 04:03:35;;;;;;;36.70;22.48;;;;;;;;;;5028471;28;20082;-76
2022/05/14 04:06:02;;;;;;;35.25;21.98;;;;;;;;;;5028667;28;20032;-75
2022/05/14 04:08:28;;;;;;;40.72;22.73;;;;;;;;;;5029849;28;20038;-76
2022/05/14 04:10:54;;;;;;;40.42;21.60;;;;;;;;;;5030760;28;20531;-76
2022/05/14 04:13:21;;;;;;;41.90;22.20;;;;;;;;;;5027829;28;20037;-76
2022/05/14 04:15:47;;;;;;;37.95;21.95;;;;;;;;;;5028134;28;20037;-76
2022/05/14 04:18:13;;;;;;;37.88;21.45;;;;;;;;;;5028494;28;20116;-76
2022/05/14 04:20:40;;;;;;;34.65;21.70;;;;;;;;;;5027972;28;20026;-76
2022/05/14 04:23:07;;;;;;;36.67;21.88;;;;;;;;;;5031838;28;20033;-76
2022/05/14 04:25:33;;;;;;;34.63;22.00;;;;;;;;;;5028790;28;20040;-76
2022/05/14 04:28:00;;;;;;;39.58;22.02;;;;;;;;;;5027641;28;20052;-76
2022/05/14 04:30:26;;;;;;;39.25;20.88;;;;;;;;;;5028200;28;20034;-76
2022/05/14 04:32:52;;;;;;;36.38;19.88;;;;;;;;;;5029330;28;20029;-77
2022/05/14 04:35:18;;;;;;;31.80;19.98;;;;;;;;;;5030273;28;20033;-77
2022/05/14 04:37:44;;;;;;;42.38;21.90;;;;;;;;;;5029580;28;20017;-76
2022/05/14 04:40:11;;;;;;;30.40;19.52;;;;;;;;;;5027736;28;20496;-76
2022/05/14 04:42:38;;;;;;;37.10;20.95;;;;;;;;;;5027776;28;20139;-77
2022/05/14 04:45:05;;;;;;;36.05;21.88;;;;;;;;;;5028142;28;20084;-76
2022/05/14 04:47:31;;;;;;;38.10;21.30;;;;;;;;;;5029023;28;20049;-76
2022/05/14 04:49:57;;;;;;;36.85;20.70;;;;;;;;;;5030710;28;20032;-76
2022/05/14 04:52:23;;;;;;;35.90;21.45;;;;;;;;;;5027956;28;20040;-76
2022/05/14 04:54:49;;;;;;;37.15;21.20;;;;;;;;;;5027617;28;20029;-76
2022/05/14 04:57:15;;;;;;;41.13;21.35;;;;;;;;;;5027915;28;20029;-76
2022/05/14 04:59:41;;;;;;;37.45;21.50;;;;;;;;;;5027878;28;20432;-75
2022/05/14 05:04:52;;;;;;;39.40;21.80;;;;;;;;;;5030330;28;20032;-75
2022/05/14 05:07:18;;;;;;;35.40;22.38;;;;;;;;;;5031348;28;20037;-76
2022/05/14 05:09:45;;;;;;;40.70;23.00;;;;;;;;;;5031701;28;20017;-76
2022/05/14 05:12:11;;;;;;;37.38;21.48;;;;;;;;;;5031541;28;20041;-75
2022/05/14 05:14:37;;;;;;;38.75;22.23;;;;;;;;;;5031930;28;20120;-76
2022/05/14 05:17:03;;;;;;;38.70;21.40;;;;;;;;;;5034808;28;20041;-76
2022/05/14 05:19:30;;;;;;;39.97;21.55;;;;;;;;;;5031424;28;20029;-76
2022/05/14 05:21:57;;;;;;;40.38;22.70;;;;;;;;;;5031240;28;20530;-76
2022/05/14 05:24:23;;;;;;;34.53;22.30;;;;;;;;;;5031112;28;20033;-76
2022/05/14 05:26:49;;;;;;;37.40;21.60;;;;;;;;;;5031565;28;20018;-76
2022/05/14 05:29:15;;;;;;;56.85;28.55;;;;;;;;;;5033224;28;20037;-76
2022/05/14 05:31:41;;;;;;;186.30;61.72;;;;;;;;;;5032537;28;20030;-76
2022/05/14 05:34:07;;;;;;;161.43;53.05;;;;;;;;;;5031074;28;20128;-76
2022/05/14 05:36:34;;;;;;;115.97;44.97;;;;;;;;;;5031097;28;20045;-76
2022/05/14 05:39:00;;;;;;;84.05;36.85;;;;;;;;;;5030953;28;20033;-76
2022/05/14 05:41:26;;;;;;;62.33;32.17;;;;;;;;;;5032985;28;20075;-76
2022/05/14 05:43:52;;;;;;;46.38;28.75;;;;;;;;;;5034784;28;20033;-76
2022/05/14 05:46:18;;;;;;;50.00;28.05;;;;;;;;;;5031179;28;20065;-76
2022/05/14 05:48:44;;;;;;;44.38;26.08;;;;;;;;;;5031826;28;20033;-76
2022/05/14 05:51:11;;;;;;;43.90;24.75;;;;;;;;;;5030867;28;20041;-76
2022/05/14 05:59:07;;;;;;;32.83;20.90;;;;;;;;;;5030845;28;20036;-77
2022/05/14 06:01:34;;;;;;;32.75;20.38;;;;;;;;;;5030609;28;20018;-75
2022/05/14 06:04:00;;;;;;;33.17;20.08;;;;;;;;;;5029440;28;20412;-75
2022/05/14 06:06:27;;;;;;;30.67;20.63;;;;;;;;;;5030897;28;20125;-76
2022/05/14 06:08:54;;;;;;;33.58;20.63;;;;;;;;;;5030623;28;20033;-75
2022/05/14 06:11:20;;;;;;;46.60;21.67;;;;;;;;;;5032603;28;20100;-74
2022/05/14 06:13:47;;;;;;;40.70;21.40;;;;;;;;;;5032058;28;20132;-74
2022/05/14 06:16:14;;;;;;;36.42;21.38;;;;;;;;;;5027130;28;20041;-75
2022/05/14 06:18:42;;;;;;;31.02;20.60;;;;;;;;;;5029791;28;20080;-74
2022/05/14 06:21:08;;;;;;;29.13;21.20;;;;;;;;;;5030248;28;20124;-74
2022/05/14 06:23:34;;;;;;;30.67;19.88;;;;;;;;;;5030945;28;20029;-77
2022/05/14 06:26:01;;;;;;;28.83;18.13;;;;;;;;;;5033635;28;20060;-74
2022/05/14 06:28:27;;;;;;;28.70;18.77;;;;;;;;;;5030076;28;20056;-74
2022/05/14 06:30:53;;;;;;;29.00;19.35;;;;;;;;;;5030549;28;20412;-71
2022/05/14 06:33:19;;;;;;;32.65;19.08;;;;;;;;;;5029223;28;20029;-71
2022/05/14 06:35:46;;;;;;;30.95;19.95;;;;;;;;;;5030428;28;20408;-71
2022/05/14 06:38:14;;;;;;;27.67;18.38;;;;;;;;;;5032355;28;20017;-71
2022/05/14 06:40:40;;;;;;;25.48;18.08;;;;;;;;;;5031203;28;20033;-71
2022/05/14 06:43:07;;;;;;;29.20;18.30;;;;;;;;;;5030006;28;20060;-71
2022/05/14 06:45:33;;;;;;;28.15;18.42;;;;;;;;;;5029979;28;20450;-68
2022/05/14 06:47:59;;;;;;;23.23;17.17;;;;;;;;;;5029632;28;20017;-71
2022/05/14 06:50:26;;;;;;;25.27;16.45;;;;;;;;;;5031738;28;20029;-71
2022/05/14 06:52:55;;;;;;;26.77;16.38;;;;;;;;;;5032479;28;20025;-71
2022/05/14 06:55:23;;;;;;;24.83;16.02;;;;;;;;;;5029587;28;20045;-70
2022/05/14 06:57:50;;;;;;;27.58;14.88;;;;;;;;;;5029213;28;20080;-70
2022/05/14 07:00:17;;;;;;;30.45;16.92;;;;;;;;;;5029577;28;20057;-70
2022/05/14 07:02:43;;;;;;;25.17;15.43;;;;;;;;;;5029741;28;20032;-70
2022/05/14 07:08:05;;;;;;;32.13;15.57;;;;;;;;;;4967789;28;20046;-70
2022/05/14 07:10:31;;;;;;;25.27;15.18;;;;;;;;;;4960114;28;20546;-70
2022/05/14 07:12:57;;;;;;;23.80;14.52;;;;;;;;;;4960760;28;20410;-70
2022/05/14 07:15:23;;;;;;;20.80;13.02;;;;;;;;;;4962010;28;20117;-69
2022/05/14 07:17:49;;;;;;;19.85;12.93;;;;;;;;;;4971308;28;20043;-69
2022/05/14 07:20:15;;;;;;;20.52;12.63;;;;;;;;;;4970934;28;20070;-70
2022/05/14 07:22:41;;;;;;;24.50;13.80;;;;;;;;;;4971664;28;20042;-70
2022/05/14 07:25:08;;;;;;;18.83;12.15;;;;;;;;;;4970877;28;20047;-69
2022/05/14 07:27:35;;;;;;;21.48;13.20;;;;;;;;;;4970801;28;20027;-69
2022/05/14 07:30:01;;;;;;;22.23;12.10;;;;;;;;;;4971116;28;20035;-69
2022/05/14 07:32:28;;;;;;;30.98;22.27;;;;;;;;;;4966820;28;20521;-68
2022/05/14 07:34:54;;;;;;;23.02;13.93;;;;;;;;;;4956586;28;20071;-69
2022/05/14 07:37:22;;;;;;;24.48;16.27;;;;;;;;;;4968503;28;20090;-71
2022/05/14 07:39:59;;;;;;;21.88;12.68;;;;;;;;;;4970303;28;20023;-70
2022/05/14 07:42:31;;;;;;;62.95;34.03;;;;;;;;;;4970613;28;20062;-69
2022/05/14 07:44:59;;;;;;;31.02;17.80;;;;;;;;;;5010190;28;20221;-71
2022/05/14 07:47:26;;;;;;;20.88;12.88;;;;;;;;;;5030854;28;20026;-70
2022/05/14 07:49:52;;;;;;;18.23;11.25;;;;;;;;;;5030271;28;20025;-70
2022/05/14 07:52:20;;;;;;;20.20;11.85;;;;;;;;;;5028673;28;20400;-71
2022/05/14 07:54:47;;;;;;;23.95;12.65;;;;;;;;;;5028481;28;20069;-71
2022/05/14 07:57:13;;;;;;;20.73;11.07;;;;;;;;;;5028347;28;20111;-70
2022/05/14 07:59:39;;;;;;;17.98;10.43;;;;;;;;;;5028621;28;20021;-71
2022/05/14 08:02:09;;;;;;;15.40;9.70;;;;;;;;;;5032206;28;20116;-71
2022/05/14 08:04:35;;;;;;;21.92;10.88;;;;;;;;;;5030098;28;20022;-71
2022/05/14 08:07:01;;;;;;;17.40;9.68;;;;;;;;;;5027705;28;20063;-77
2022/05/14 08:09:27;;;;;;;18.48;10.02;;;;;;;;;;5028028;28;20036;-76
2022/05/14 08:11:53;;;;;;;17.35;10.43;;;;;;;;;;5027737;28;20535;-76
2022/05/14 08:14:19;;;;;;;17.35;9.25;;;;;;;;;;5029226;28;20520;-76
2022/05/14 08:16:45;;;;;;;15.43;9.80;;;;;;;;;;5029568;28;20081;-77
2022/05/14 08:19:12;;;;;;;15.70;9.88;;;;;;;;;;5027581;28;20565;-77
2022/05/14 08:24:31;;;;;;;18.98;10.23;;;;;;;;;;5028333;28;20531;-77
2022/05/14 08:27:01;;;;;;;16.75;11.10;;;;;;;;;;5028197;28;20018;-76
2022/05/14 08:29:27;;;;;;;21.77;10.50;;;;;;;;;;5030119;28;20037;-76
2022/05/14 08:31:53;;;;;;;21.35;13.23;;;;;;;;;;5030084;28;20104;-76
2022/05/14 08:34:19;;;;;;;17.23;10.00;;;;;;;;;;5027614;28;20048;-76
2022/05/14 08:36:46;;;;;;;24.88;11.55;;;;;;;;;;5028018;28;20025;-76
2022/05/14 08:39:13;;;;;;;18.92;10.73;;;;;;;;;;5028202;28;20034;-76
2022/05/14 08:41:41;;;;;;;17.27;10.18;;;;;;;;;;5034300;28;20028;-76
2022/05/14 08:44:09;;;;;;;22.35;11.15;;;;;;;;;;5034229;28;20484;-76
2022/05/14 08:46:37;;;;;;;17.33;10.93;;;;;;;;;;5036635;28;20021;-76
2022/05/14 08:49:06;;;;;;;20.50;10.50;;;;;;;;;;5034253;28;20055;-76
2022/05/14 08:51:34;;;;;;;16.38;9.88;;;;;;;;;;5034741;28;20033;-76
2022/05/14 08:54:01;;;;;;;14.68;9.73;;;;;;;;;;5034564;28;20041;-76
2022/05/14 08:56:55;;;;;;;17.05;10.18;;;;;;;;;;5036594;28;20026;-76
2022/05/14 08:59:30;;;;;;;17.27;10.55;;;;;;;;;;5034809;28;20034;-76
2022/05/14 09:02:00;;;;;;;18.25;10.63;;;;;;;;;;5036562;28;20048;-76
2022/05/14 09:04:26;;;;;;;17.23;9.77;;;;;;;;;;5034427;28;20507;-76
2022/05/14 09:06:52;;;;;;;15.40;9.15;;;;;;;;;;5034434;28;20021;-76
2022/05/14 09:09:19;;;;;;;14.60;9.43;;;;;;;;;;5034471;28;20056;-76
2022/05/14 09:11:46;;;;;;;12.95;9.57;;;;;;;;;;5034266;28;20088;-77
2022/05/14 09:14:22;;;;;;;16.73;9.68;;;;;;;;;;5037123;28;20392;-77
2022/05/14 09:16:51;;;;;;;16.95;9.75;;;;;;;;;;5037192;28;20415;-76
2022/05/14 09:19:18;;;;;;;12.98;9.43;;;;;;;;;;5034397;28;20041;-76
2022/05/14 09:21:54;;;;;;;19.27;9.85;;;;;;;;;;5034285;28;20013;-76
2022/05/14 09:24:25;;;;;;;16.38;9.77;;;;;;;;;;5034352;28;20116;-76
2022/05/14 09:26:52;;;;;;;18.80;9.93;;;;;;;;;;5034433;28;20369;-76
2022/05/14 09:29:30;;;;;;;16.35;9.43;;;;;;;;;;5036723;28;20036;-76
2022/05/14 09:32:01;;;;;;;14.95;9.45;;;;;;;;;;5036225;28;20075;-76
2022/05/14 09:34:31;;;;;;;15.57;9.18;;;;;;;;;;5033939;28;20103;-76
2022/05/14 09:37:01;;;;;;;16.00;9.45;;;;;;;;;;5034380;28;20523;-76
2022/05/14 09:39:28;;;;;;;14.35;9.23;;;;;;;;;;5034071;28;20464;-76
2022/05/14 09:42:00;;;;;;;15.35;9.25;;;;;;;;;;5034212;28;20032;-76
2022/05/14 09:44:26;;;;;;;14.05;8.85;;;;;;;;;;5036246;28;20063;-76
2022/05/14 09:46:53;;;;;;;14.85;9.20;;;;;;;;;;5035672;28;20057;-76
2022/05/14 09:49:24;;;;;;;14.13;8.63;;;;;;;;;;5034029;28;20025;-76
2022/05/14 09:51:52;;;;;;;13.77;9.25;;;;;;;;;;5032390;28;20052;-76
2022/05/14 09:54:23;;;;;;;15.73;9.02;;;;;;;;;;5030953;28;20129;-76
2022/05/14 09:57:01;;;;;;;15.90;8.32;;;;;;;;;;5030882;28;20496;-76
2022/05/14 09:59:46;;;;;;;12.05;8.55;;;;;;;;;;5032706;28;20033;-76
2022/05/14 10:02:17;;;;;;;13.65;8.60;;;;;;;;;;5030817;28;20514;-76
2022/05/14 10:05:16;;;;;;;12.90;8.95;;;;;;;;;;5032035;28;20030;-76
2022/05/14 10:07:51;;;;;;;16.00;9.63;;;;;;;;;;4973270;28;20387;-76
2022/05/14 10:10:52;;;;;;;14.95;9.55;;;;;;;;;;4972424;28;20042;-76
2022/05/14 10:13:47;;;;;;;13.10;9.02;;;;;;;;;;4883728;29;20111;-76
2022/05/14 10:16:22;;;;;;;15.57;9.48;;;;;;;;;;4877099;29;20045;-76
2022/05/14 10:19:00;;;;;;;12.75;8.82;;;;;;;;;;4881563;29;20033;-76
2022/05/14 10:21:44;;;;;;;14.95;8.40;;;;;;;;;;4881511;29;20055;-76
2022/05/14 10:27:13;;;;;;;16.83;9.18;;;;;;;;;;4881505;29;20088;-76
2022/05/14 10:29:42;;;;;;;13.20;8.32;;;;;;;;;;4877064;29;20047;-76
2022/05/14 10:32:10;;;;;;;17.35;9.27;;;;;;;;;;4889195;29;20075;-76
2022/05/14 10:34:55;;;;;;;18.38;14.77;;;;;;;;;;4881627;29;20053;-76
2022/05/14 10:37:36;;;;;;;19.40;15.02;;;;;;;;;;4881288;29;20100;-76
2022/05/14 10:40:10;;;;;;;17.60;8.60;;;;;;;;;;4881216;29;20049;-76
2022/05/14 10:42:44;;;;;;;15.07;8.95;;;;;;;;;;4892433;29;20558;-75
2022/05/14 10:45:15;;;;;;;14.75;9.27;;;;;;;;;;4913527;29;20128;-76
2022/05/14 10:47:44;;;;;;;32.15;19.60;;;;;;;;;;4981783;28;20030;-76
2022/05/14 10:50:14;;;;;;;18.05;9.63;;;;;;;;;;5032105;28;20391;-76
2022/05/14 10:52:41;;;;;;;14.95;8.13;;;;;;;;;;5030891;28;20029;-76
2022/05/14 10:55:21;;;;;;;17.90;10.30;;;;;;;;;;5029938;28;20041;-76
2022/05/14 10:57:49;;;;;;;15.80;9.43;;;;;;;;;;5029382;28;20052;-76
2022/05/14 11:00:18;;;;;;;14.43;8.45;;;;;;;;;;5029626;28;20467;-76
2022/05/14 11:03:13;;;;;;;13.85;8.35;;;;;;;;;;5029217;28;20163;-76
2022/05/14 11:05:50;;;;;;;12.32;8.00;;;;;;;;;;5005874;28;20061;-76
2022/05/14 11:08:27;;;;;;;15.57;8.38;;;;;;;;;;5029481;28;20025;-76
2022/05/14 11:11:07;;;;;;;16.45;8.20;;;;;;;;;;5031307;28;20057;-76
2022/05/14 11:13:34;;;;;;;13.55;8.23;;;;;;;;;;5028812;28;20021;-76
2022/05/14 11:16:02;;;;;;;17.45;9.85;;;;;;;;;;5029146;28;20515;-76
2022/05/14 11:18:28;;;;;;;16.13;9.52;;;;;;;;;;5029282;28;20464;-76
2022/05/14 11:20:56;;;;;;;17.58;10.70;;;;;;;;;;5029190;28;20492;-76
2022/05/14 11:23:23;;;;;;;17.80;11.00;;;;;;;;;;5031493;28;20029;-76
2022/05/14 11:26:02;;;;;;;17.73;10.40;;;;;;;;;;5030564;28;20078;-76
2022/05/14 11:28:30;;;;;;;19.60;10.80;;;;;;;;;;5029066;28;20059;-76
2022/05/14 11:31:08;;;;;;;19.80;10.98;;;;;;;;;;5028886;28;20021;-76
2022/05/14 11:33:35;;;;;;;17.58;10.93;;;;;;;;;;5027978;28;20033;-76
2022/05/14 11:36:01;;;;;;;17.85;10.38;;;;;;;;;;5029113;28;20423;-76
2022/05/14 11:38:27;;;;;;;20.00;11.30;;;;;;;;;;5031033;28;20033;-77
2022/05/14 11:41:01;;;;;;;19.33;10.90;;;;;;;;;;5030810;28;20416;-76
2022/05/14 11:43:27;;;;;;;;;;;;;;;;;;5029080;28;20034;-76
2022/05/14 11:45:58;;;;;;;19.08;11.32;;;;;;;;;;5028826;28;19948;-76
2022/05/14 11:48:30;;;;;;;14.48;9.65;;;;;;;;;;5028936;28;20087;-76
2022/05/14 11:51:09;;;;;;;18.17;10.53;;;;;;;;;;5028270;28;20153;-76
2022/05/14 11:53:39;;;;;;;16.70;10.38;;;;;;;;;;5029375;28;20692;-76
2022/05/14 11:56:08;;;;;;;18.73;11.15;;;;;;;;;;5031958;28;20090;-76
2022/05/14 11:58:37;;;;;;;15.23;9.95;;;;;;;;;;5028628;28;20057;-76
2022/05/14 12:01:22;;;;;;;18.73;9.88;;;;;;;;;;5028639;28;20484;-76
2022/05/14 12:03:49;;;;;;;16.13;10.00;;;;;;;;;;5028584;28;20034;-75
2022/05/14 12:06:21;;;;;;;22.50;10.15;;;;;;;;;;5028992;28;20033;-76
2022/05/14 12:09:02;;;;;;;18.52;10.95;;;;;;;;;;5028849;28;20111;-76
2022/05/14 12:11:35;;;;;;;19.75;10.70;;;;;;;;;;5030032;28;20033;-75
2022/05/14 12:14:04;;;;;;;16.35;10.13;;;;;;;;;;5031345;28;20037;-76
2022/05/14 12:16:33;;;;;;;19.27;10.73;;;;;;;;;;5027819;28;20123;-75
2022/05/14 12:19:01;;;;;;;14.52;9.98;;;;;;;;;;5028462;28;20026;-75
2022/05/14 12:21:28;;;;;;;13.55;9.85;;;;;;;;;;5028401;28;20030;-75
2022/05/14 12:23:54;;;;;;;14.32;10.35;;;;;;;;;;5028391;28;20034;-75
2022/05/14 12:26:30;;;;;;;18.75;10.65;;;;;;;;;;5030482;28;20373;-75
2022/05/14 12:28:58;;;;;;;14.43;9.43;;;;;;;;;;5030694;28;20026;-76
2022/05/14 12:34:19;;;;;;;18.30;10.10;;;;;;;;;;5028381;28;20048;-75
2022/05/14 12:36:45;;;;;;;12.73;9.68;;;;;;;;;;5028407;28;20022;-76
2022/05/14 12:39:17;;;;;;;18.92;9.75;;;;;;;;;;5028327;28;20403;-75
2022/05/14 12:41:46;;;;;;;14.40;10.30;;;;;;;;;;5013485;28;20048;-76
2022/05/14 12:44:14;;;;;;;15.00;9.60;;;;;;;;;;5031654;28;20057;-75
2022/05/14 12:46:42;;;;;;;17.55;9.60;;;;;;;;;;5029198;28;20029;-76
2022/05/14 12:49:15;;;;;;;16.23;10.13;;;;;;;;;;5028244;28;20472;-76
2022/05/14 12:51:46;;;;;;;16.95;10.18;;;;;;;;;;5035142;23;20136;-68
2022/05/14 12:54:19;;;;;;;18.00;10.25;;;;;;;;;;5030440;28;20052;-69
2022/05/14 12:56:46;;;;;;;19.15;9.57;;;;;;;;;;5030682;28;20117;-69
2022/05/14 12:59:12;;;;;;;18.70;9.77;;;;;;;;;;5029909;28;20041;-69
2022/05/14 13:01:38;;;;;;;13.05;9.35;;;;;;;;;;5031055;28;20025;-69
2022/05/14 13:04:08;;;;;;;17.00;9.50;;;;;;;;;;5030185;28;20040;-69
2022/05/14 13:06:36;;;;;;;16.42;9.77;;;;;;;;;;5030029;28;20099;-69
2022/05/14 13:09:05;;;;;;;16.80;10.18;;;;;;;;;;5030294;28;20412;-69
2022/05/14 13:11:32;;;;;;;16.08;9.98;;;;;;;;;;5030405;28;20041;-69
2022/05/14 13:14:09;;;;;;;15.43;9.75;;;;;;;;;;5031726;28;20475;-69
2022/05/14 13:16:35;;;;;;;17.10;9.90;;;;;;;;;;5026474;28;20040;-69
2022/05/14 13:19:22;;;;;;;17.77;10.10;;;;;;;;;;5030097;28;20034;-69
2022/05/14 13:21:53;;;;;;;16.98;9.40;;;;;;;;;;5030052;28;20064;-68
2022/05/14 13:24:22;;;;;;;16.88;9.68;;;;;;;;;;5026279;28;20067;-69
2022/05/14 13:26:50;;;;;;;17.83;10.40;;;;;;;;;;5028130;28;20088;-68
2022/05/14 13:29:16;;;;;;;18.33;9.65;;;;;;;;;;5033886;28;20584;-68
2022/05/14 13:31:43;;;;;;;16.42;9.52;;;;;;;;;;5032068;28;20021;-72
2022/05/14 13:37:14;;;;;;;21.55;10.52;;;;;;;;;;5034145;28;20142;-72
2022/05/14 13:39:52;;;;;;;16.58;9.52;;;;;;;;;;5016306;28;20041;-72
2022/05/14 13:42:23;;;;;;;14.98;9.27;;;;;;;;;;5029872;28;20021;-72
2022/05/14 13:45:18;;;;;;;15.27;9.20;;;;;;;;;;5029834;28;20030;-72
2022/05/14 13:47:50;;;;;;;15.25;9.85;;;;;;;;;;5016813;28;20128;-71
2022/05/14 13:50:23;;;;;;;15.25;10.05;;;;;;;;;;5033782;28;20360;-72
2022/05/14 13:52:49;;;;;;;;;;;;;;;;;;5034384;28;20049;-72
2022/05/14 13:55:17;;;;;;;16.88;10.35;;;;;;;;;;5029669;28;19913;-72
2022/05/14 13:57:53;;;;;;;18.83;10.90;;;;;;;;;;5029713;28;20030;-71
2022/05/14 14:00:21;;;;;;;21.67;11.63;;;;;;;;;;5029567;28;20407;-72
2022/05/14 14:03:00;;;;;;;18.10;10.73;;;;;;;;;;5029748;28;20040;-71
2022/05/14 14:05:27;;;;;;;17.48;10.93;;;;;;;;;;5031830;28;20525;-71
2022/05/14 14:07:53;;;;;;;16.52;10.88;;;;;;;;;;5032385;28;20026;-71
2022/05/14 14:10:21;;;;;;;18.48;11.30;;;;;;;;;;5029238;28;20083;-71
2022/05/14 14:12:48;;;;;;;19.08;11.40;;;;;;;;;;5029159;28;20101;-71
2022/05/14 14:15:15;;;;;;;18.95;11.55;;;;;;;;;;5029230;28;20098;-71
2022/05/14 14:17:49;;;;;;;22.00;11.98;;;;;;;;;;5013853;28;20026;-71
2022/05/14 14:20:15;;;;;;;;;;;;;;;;;;5030793;28;20037;-72
2022/05/14 14:22:42;;;;;;;16.27;11.13;;;;;;;;;;5030123;28;19913;-71
2022/05/14 14:25:08;;;;;;;18.75;11.15;;;;;;;;;;5029067;28;20064;-71
2022/05/14 14:27:35;;;;;;;17.90;11.30;;;;;;;;;;5029198;28;20496;-72
2022/05/14 14:30:03;;;;;;;19.70;11.43;;;;;;;;;;5028841;28;20125;-72
2022/05/14 14:32:29;;;;;;;16.48;11.38;;;;;;;;;;5031038;28;20033;-69
2022/05/14 14:34:55;;;;;;;24.35;11.48;;;;;;;;;;5032424;28;20034;-69
2022/05/14 14:37:21;;;;;;;18.83;11.50;;;;;;;;;;5027989;28;20495;-68
2022/05/14 14:39:50;;;;;;;17.25;11.45;;;;;;;;;;5028260;28;20482;-69
2022/05/14 14:42:16;;;;;;;20.10;11.75;;;;;;;;;;5028823;28;20104;-69
2022/05/14 14:44:42;;;;;;;24.67;11.70;;;;;;;;;;5028583;28;20029;-69
2022/05/14 14:47:09;;;;;;;17.20;11.80;;;;;;;;;;5033947;28;20117;-69